createdAt,value
2023-02-22T00:02:10.787Z,16.65
2023-02-22T00:04:39.897Z,16.35
2023-02-22T00:07:07.357Z,16.08
2023-02-22T00:09:34.246Z,16.02
2023-02-22T00:12:01.385Z,16.65
2023-02-22T00:14:28.614Z,17.42
2023-02-22T00:16:59.559Z,16.33
2023-02-22T00:19:28.194Z,16.35
2023-02-22T00:21:55.422Z,16.52
2023-02-22T00:24:24.832Z,16.40
2023-02-22T00:26:55.762Z,15.95
2023-02-22T00:29:24.497Z,15.70
2023-02-22T00:31:51.636Z,16.10
2023-02-22T00:34:18.559Z,16.23
2023-02-22T00:36:49.957Z,16.30
2023-02-22T00:39:17.078Z,17.33
2023-02-22T00:41:44.298Z,17.38
2023-02-22T00:44:11.842Z,16.80
2023-02-22T00:46:39.521Z,16.60
2023-02-22T00:49:06.685Z,16.85
2023-02-22T00:51:34.073Z,17.63
2023-02-22T00:54:01.207Z,17.63
2023-02-22T00:56:28.756Z,17.35
2023-02-22T00:58:56.100Z,17.35
2023-02-22T01:01:24.200Z,17.13
2023-02-22T01:03:51.445Z,17.75
2023-02-22T01:06:18.783Z,16.95
2023-02-22T01:08:47.534Z,16.80
2023-02-22T01:11:16.339Z,18.23
2023-02-22T01:13:45.382Z,17.48
2023-02-22T01:16:12.466Z,18.92
2023-02-22T01:18:39.564Z,18.48
2023-02-22T01:21:06.845Z,19.83
2023-02-22T01:23:35.655Z,19.95
2023-02-22T01:26:06.076Z,19.40
2023-02-22T01:28:34.088Z,19.42
2023-02-22T01:31:03.293Z,18.65
2023-02-22T01:33:30.563Z,19.23
2023-02-22T01:35:57.870Z,18.35
2023-02-22T01:38:24.773Z,17.90
2023-02-22T01:40:52.181Z,17.15
2023-02-22T01:43:24.107Z,17.92
2023-02-22T01:45:59.756Z,18.10
2023-02-22T01:48:29.992Z,17.75
2023-02-22T01:51:10.834Z,17.98
2023-02-22T01:54:01.094Z,18.67
2023-02-22T01:56:31.172Z,17.95
2023-02-22T01:59:08.654Z,18.30
2023-02-22T02:01:38.070Z,18.38
2023-02-22T02:04:10.163Z,18.35
2023-02-22T02:06:38.408Z,18.20
2023-02-22T02:09:30.336Z,17.13
2023-02-22T02:12:05.092Z,17.90
2023-02-22T02:14:32.773Z,17.63
2023-02-22T02:17:03.889Z,18.70
2023-02-22T02:19:49.646Z,18.02
2023-02-22T02:22:19.350Z,17.70
2023-02-22T02:25:18.214Z,18.48
2023-02-22T02:28:09.652Z,18.23
2023-02-22T02:31:07.917Z,18.70
2023-02-22T02:33:56.580Z,19.15
2023-02-22T02:36:53.153Z,19.45
2023-02-22T02:39:49.361Z,18.98
2023-02-22T02:42:22.339Z,19.08
2023-02-22T02:44:56.510Z,20.00
2023-02-22T02:47:37.801Z,20.10
2023-02-22T02:50:14.404Z,20.40
2023-02-22T02:52:42.088Z,19.23
2023-02-22T02:55:11.407Z,18.35
2023-02-22T02:57:41.561Z,19.17
2023-02-22T03:00:24.725Z,18.38
2023-02-22T03:03:10.510Z,18.35
2023-02-22T03:05:52.615Z,17.92
2023-02-22T03:08:32.030Z,17.80
2023-02-22T03:11:05.064Z,19.17
2023-02-22T03:27:54.528Z,18.52
2023-02-22T03:30:46.847Z,19.20
2023-02-22T03:33:23.680Z,18.30
2023-02-22T03:35:57.103Z,18.27
2023-02-22T03:38:29.005Z,19.38
2023-02-22T03:41:00.353Z,18.10
2023-02-22T03:43:34.513Z,18.65
2023-02-22T03:46:06.203Z,18.83
2023-02-22T03:48:39.910Z,19.02
2023-02-22T03:51:07.936Z,18.50
2023-02-22T03:53:37.283Z,18.05
2023-02-22T03:56:10.563Z,17.77
2023-02-22T03:58:40.490Z,18.40
2023-02-22T04:01:07.484Z,18.20
2023-02-22T04:03:34.402Z,18.88
2023-02-22T04:06:01.892Z,17.27
2023-02-22T04:08:30.441Z,18.02
2023-02-22T04:10:57.305Z,18.55
2023-02-22T04:13:27.614Z,17.10
2023-02-22T04:15:55.114Z,17.90
2023-02-22T04:18:22.637Z,16.90
2023-02-22T04:20:51.131Z,17.23
2023-02-22T04:23:29.586Z,17.35
2023-02-22T04:25:58.247Z,17.52
2023-02-22T04:28:25.309Z,17.65
2023-02-22T04:31:06.297Z,17.45
2023-02-22T04:33:33.336Z,17.10
2023-02-22T04:36:00.308Z,17.00
2023-02-22T04:38:30.960Z,17.65
2023-02-22T04:40:59.496Z,18.00
2023-02-22T04:43:27.361Z,18.45
2023-02-22T04:46:02.073Z,17.55
2023-02-22T04:48:29.208Z,18.35
2023-02-22T04:50:56.955Z,18.65
2023-02-22T04:53:24.880Z,18.08
2023-02-22T04:55:52.549Z,18.88
2023-02-22T04:58:19.553Z,19.08
2023-02-22T05:00:48.144Z,18.13
2023-02-22T05:03:15.644Z,19.20
2023-02-22T05:05:42.555Z,19.13
2023-02-22T05:08:09.614Z,17.92
2023-02-22T05:10:36.494Z,18.77
2023-02-22T05:13:04.264Z,19.20
2023-02-22T05:15:31.157Z,18.45
2023-02-22T05:17:58.066Z,18.67
2023-02-22T05:20:28.980Z,18.60
2023-02-22T05:22:57.338Z,18.38
2023-02-22T05:25:25.049Z,19.05
2023-02-22T05:27:53.961Z,20.05
2023-02-22T05:30:24.418Z,19.98
2023-02-22T05:32:52.704Z,18.17
2023-02-22T05:35:21.584Z,20.15
2023-02-22T05:37:48.452Z,20.15
2023-02-22T05:40:19.054Z,20.00
2023-02-22T05:42:48.736Z,19.13
2023-02-22T05:45:18.650Z,20.45
2023-02-22T05:47:46.102Z,20.67
2023-02-22T05:50:14.190Z,21.23
2023-02-22T05:52:41.452Z,21.63
2023-02-22T05:55:10.742Z,20.23
2023-02-22T05:57:37.769Z,21.20
2023-02-22T06:00:10.134Z,21.58
2023-02-22T06:02:39.883Z,23.08
2023-02-22T06:05:07.274Z,22.23
2023-02-22T06:07:34.100Z,22.95
2023-02-22T06:10:00.952Z,22.52
2023-02-22T06:12:27.944Z,21.70
2023-02-22T06:14:54.832Z,21.70
2023-02-22T06:17:21.829Z,22.67
2023-02-22T06:19:48.668Z,24.42
2023-02-22T06:22:19.753Z,22.88
2023-02-22T06:24:46.787Z,22.10
2023-02-22T06:27:13.814Z,21.15
2023-02-22T06:29:46.084Z,24.20
2023-02-22T06:32:14.015Z,23.73
2023-02-22T06:34:43.777Z,22.42
2023-02-22T06:37:10.661Z,22.40
2023-02-22T06:39:37.604Z,23.27
2023-02-22T06:42:04.608Z,22.65
2023-02-22T06:44:31.478Z,21.85
2023-02-22T06:46:59.746Z,20.73
2023-02-22T06:49:30.481Z,21.17
2023-02-22T06:51:57.359Z,22.13
2023-02-22T06:54:24.481Z,21.70
2023-02-22T06:56:51.304Z,21.88
2023-02-22T06:59:18.337Z,20.45
2023-02-22T07:01:45.193Z,22.23
2023-02-22T07:04:12.056Z,22.08
2023-02-22T07:06:38.922Z,20.45
2023-02-22T07:09:05.772Z,20.15
2023-02-22T07:11:32.817Z,25.40
2023-02-22T07:13:59.586Z,21.83
2023-02-22T07:16:26.549Z,21.23
2023-02-22T07:18:53.388Z,21.45
2023-02-22T07:21:20.394Z,20.90
2023-02-22T07:23:52.284Z,21.60
2023-02-22T07:26:19.979Z,22.90
2023-02-22T07:28:47.123Z,20.10
2023-02-22T07:31:14.057Z,21.90
2023-02-22T07:33:41.162Z,20.52
2023-02-22T07:36:08.548Z,22.65
2023-02-22T07:38:35.487Z,22.77
2023-02-22T07:41:02.452Z,21.45
2023-02-22T07:43:31.214Z,22.00
2023-02-22T07:46:00.546Z,19.65
2023-02-22T07:48:29.389Z,20.45
2023-02-22T07:50:57.517Z,20.92
2023-02-22T07:53:32.582Z,20.15
2023-02-22T07:56:01.452Z,20.70
2023-02-22T07:58:30.220Z,20.50
2023-02-22T08:00:59.096Z,26.17
2023-02-22T08:03:26.836Z,22.73
2023-02-22T08:05:56.301Z,19.52
2023-02-22T08:08:23.584Z,20.05
2023-02-22T08:10:51.733Z,19.33
2023-02-22T08:13:19.519Z,20.08
2023-02-22T08:15:49.576Z,19.70
2023-02-22T08:18:19.154Z,20.65
2023-02-22T08:20:48.429Z,19.90
2023-02-22T08:23:17.307Z,18.88
2023-02-22T08:25:44.599Z,18.75
2023-02-22T08:28:14.115Z,19.15
2023-02-22T08:30:43.472Z,18.15
2023-02-22T08:33:14.642Z,18.73
2023-02-22T08:35:42.008Z,19.35
2023-02-22T08:38:16.841Z,19.55
2023-02-22T08:40:43.715Z,20.45
2023-02-22T08:43:10.646Z,20.33
2023-02-22T08:45:37.550Z,19.83
2023-02-22T08:48:04.770Z,19.45
2023-02-22T08:50:35.896Z,20.42
2023-02-22T08:53:04.987Z,19.27
2023-02-22T08:55:35.079Z,20.13
2023-02-22T08:58:03.849Z,19.20
2023-02-22T09:00:33.263Z,21.70
2023-02-22T09:03:04.390Z,19.88
2023-02-22T09:05:32.063Z,19.42
2023-02-22T09:07:59.429Z,19.02
2023-02-22T09:10:30.630Z,18.25
2023-02-22T09:12:58.151Z,18.25
2023-02-22T09:15:25.746Z,19.42
2023-02-22T09:17:53.628Z,36.83
2023-02-22T09:20:22.292Z,19.13
2023-02-22T09:22:49.931Z,18.65
2023-02-22T09:25:18.156Z,19.02
2023-02-22T09:27:48.058Z,18.00
2023-02-22T09:30:32.514Z,18.13
2023-02-22T09:33:03.938Z,19.50
2023-02-22T09:35:31.117Z,19.38
2023-02-22T09:38:00.640Z,18.77
2023-02-22T09:40:31.077Z,20.45
2023-02-22T09:43:23.927Z,18.63
2023-02-22T09:46:13.777Z,19.27
2023-02-22T09:49:09.807Z,18.83
2023-02-22T09:51:50.680Z,19.10
2023-02-22T09:54:27.173Z,20.58
2023-02-22T09:56:58.400Z,19.40
2023-02-22T09:59:33.938Z,18.35
2023-02-22T10:02:31.654Z,18.58
2023-02-22T10:05:20.263Z,18.55
2023-02-22T10:07:53.819Z,19.02
2023-02-22T10:10:24.627Z,19.63
2023-02-22T10:13:30.836Z,20.75
2023-02-22T10:16:14.452Z,19.52
2023-02-22T10:19:08.439Z,19.40
2023-02-22T10:21:54.191Z,19.33
2023-02-22T10:24:40.256Z,19.25
2023-02-22T10:27:16.138Z,19.23
2023-02-22T10:29:49.432Z,19.55
2023-02-22T10:32:31.718Z,19.33
2023-02-22T10:35:00.934Z,19.60
2023-02-22T10:37:31.014Z,19.70
2023-02-22T10:40:20.559Z,20.35
2023-02-22T10:42:47.661Z,19.35
2023-02-22T10:45:19.645Z,20.92
2023-02-22T10:47:47.382Z,20.77
2023-02-22T10:50:15.895Z,20.48
2023-02-22T10:52:42.720Z,20.35
2023-02-22T10:55:15.846Z,20.58
2023-02-22T10:57:47.552Z,20.85
2023-02-22T11:00:19.996Z,21.00
2023-02-22T11:02:53.958Z,20.92
2023-02-22T11:08:32.294Z,21.65
2023-02-22T11:11:20.517Z,21.88
2023-02-22T11:13:57.787Z,21.52
2023-02-22T11:16:34.147Z,21.55
2023-02-22T11:19:16.989Z,21.15
2023-02-22T11:21:44.754Z,19.90
2023-02-22T11:24:14.349Z,21.15
2023-02-22T11:26:52.157Z,20.80
2023-02-22T11:29:24.757Z,21.42
2023-02-22T11:31:52.809Z,20.20
2023-02-22T11:34:38.406Z,20.17
2023-02-22T11:37:31.751Z,19.83
2023-02-22T11:40:22.343Z,19.27
2023-02-22T11:43:06.129Z,19.48
2023-02-22T11:45:33.122Z,18.60
2023-02-22T11:48:02.784Z,18.80
2023-02-22T11:50:57.473Z,18.08
2023-02-22T11:53:44.863Z,19.10
2023-02-22T11:56:37.755Z,17.75
2023-02-22T11:59:38.870Z,16.58
2023-02-22T12:02:51.924Z,16.38
2023-02-22T12:06:11.695Z,16.75
2023-02-22T12:09:04.449Z,16.77
2023-02-22T12:12:08.196Z,17.00
2023-02-22T12:14:48.756Z,17.23
2023-02-22T12:17:59.506Z,17.00
2023-02-22T12:20:40.909Z,16.17
2023-02-22T12:23:19.820Z,16.00
2023-02-22T12:26:11.490Z,16.52
2023-02-22T12:28:44.361Z,15.98
2023-02-22T12:31:25.838Z,16.30
2023-02-22T12:34:09.712Z,16.45
2023-02-22T12:36:50.536Z,16.20
2023-02-22T12:39:52.323Z,16.30
2023-02-22T12:42:31.807Z,21.58
2023-02-22T12:45:08.374Z,17.30
2023-02-22T12:47:49.641Z,15.88
2023-02-22T12:50:28.639Z,16.50
2023-02-22T12:53:01.448Z,16.67
2023-02-22T12:55:47.452Z,15.50
2023-02-22T12:58:31.385Z,16.38
2023-02-22T13:01:05.769Z,16.38
2023-02-22T13:03:39.583Z,15.88
2023-02-22T13:06:28.327Z,17.63
2023-02-22T13:09:13.522Z,16.85
2023-02-22T13:12:06.691Z,17.67
2023-02-22T13:14:48.451Z,15.55
2023-02-22T13:17:24.331Z,17.20
2023-02-22T13:20:18.442Z,16.23
2023-02-22T13:22:54.228Z,16.67
2023-02-22T13:25:30.495Z,15.88
2023-02-22T13:28:02.747Z,17.00
2023-02-22T13:30:48.595Z,16.23
2023-02-22T13:33:46.343Z,15.82
2023-02-22T13:36:16.998Z,18.25
2023-02-22T13:38:44.111Z,18.40
2023-02-22T13:41:39.599Z,16.85
2023-02-22T13:44:15.472Z,16.80
2023-02-22T13:47:14.497Z,17.45
2023-02-22T13:49:50.611Z,17.58
2023-02-22T13:52:24.067Z,16.55
2023-02-22T13:54:56.367Z,16.50
2023-02-22T13:57:48.343Z,17.02
2023-02-22T14:00:15.784Z,15.40
2023-02-22T14:03:03.719Z,16.80
2023-02-22T14:05:39.786Z,16.08
2023-02-22T14:08:31.318Z,16.50
2023-02-22T14:11:01.642Z,16.48
2023-02-22T14:13:30.939Z,16.20
2023-02-22T14:16:00.785Z,16.48
2023-02-22T14:18:29.893Z,17.05
2023-02-22T14:21:21.116Z,16.42
2023-02-22T14:23:53.148Z,16.80
2023-02-22T14:26:28.001Z,17.63
2023-02-22T14:29:07.625Z,15.95
2023-02-22T14:31:38.119Z,16.60
2023-02-22T14:34:09.639Z,16.02
2023-02-22T14:36:54.689Z,17.38
2023-02-22T14:39:46.159Z,16.33
2023-02-22T14:42:28.759Z,16.45
2023-02-22T14:45:09.599Z,16.35
2023-02-22T14:47:44.043Z,16.08
2023-02-22T14:50:23.337Z,16.10
2023-02-22T14:53:15.358Z,16.25
2023-02-22T14:55:57.767Z,16.67
2023-02-22T14:58:33.763Z,16.25
2023-02-22T15:01:49.109Z,16.20
2023-02-22T15:04:33.996Z,15.60
2023-02-22T15:07:08.027Z,15.80
2023-02-22T15:09:37.717Z,16.17
2023-02-22T15:12:04.805Z,15.55
2023-02-22T15:29:45.131Z,16.45
2023-02-22T15:32:21.171Z,16.15
2023-02-22T15:34:48.192Z,16.27
2023-02-22T15:37:25.653Z,17.08
2023-02-22T15:39:59.512Z,15.98
2023-02-22T15:42:29.717Z,16.48
2023-02-22T15:44:56.992Z,17.25
2023-02-22T15:47:40.160Z,16.17
2023-02-22T15:50:15.796Z,16.60
2023-02-22T15:53:23.320Z,17.45
2023-02-22T15:55:57.594Z,16.25
2023-02-22T15:58:28.897Z,20.02
2023-02-22T16:01:08.077Z,14.98
2023-02-22T16:03:45.039Z,15.70
2023-02-22T16:06:19.990Z,15.32
2023-02-22T16:08:55.441Z,16.77
2023-02-22T16:11:43.477Z,15.30
2023-02-22T16:14:39.283Z,15.63
2023-02-22T16:17:14.160Z,16.55
2023-02-22T16:19:44.970Z,15.57
2023-02-22T16:22:34.040Z,15.35
2023-02-22T16:25:19.304Z,16.23
2023-02-22T16:27:47.799Z,15.23
2023-02-22T16:30:27.468Z,16.00
2023-02-22T16:32:56.633Z,15.50
2023-02-22T16:35:29.031Z,15.63
2023-02-22T16:38:05.097Z,17.80
2023-02-22T16:40:47.195Z,15.82
2023-02-22T16:43:17.578Z,14.52
2023-02-22T16:45:46.428Z,14.70
2023-02-22T16:48:16.853Z,14.48
2023-02-22T16:50:43.929Z,14.88
2023-02-22T16:53:11.196Z,15.00
2023-02-22T16:55:37.973Z,14.93
2023-02-22T16:58:05.677Z,15.27
2023-02-22T17:00:32.546Z,13.95
2023-02-22T17:03:04.106Z,15.43
2023-02-22T17:05:37.883Z,16.92
2023-02-22T17:08:05.009Z,14.52
2023-02-22T17:10:32.497Z,14.85
2023-02-22T17:13:07.235Z,13.93
2023-02-22T17:15:39.713Z,14.07
2023-02-22T17:18:16.369Z,13.80
2023-02-22T17:20:45.144Z,13.80
2023-02-22T17:23:12.497Z,13.73
2023-02-22T17:25:41.242Z,13.43
2023-02-22T17:28:08.793Z,13.93
2023-02-22T17:30:36.579Z,13.80
2023-02-22T17:33:07.162Z,12.70
2023-02-22T17:35:37.303Z,13.60
2023-02-22T17:38:06.381Z,14.48
2023-02-22T17:40:35.009Z,13.70
2023-02-22T17:43:02.020Z,15.35
2023-02-22T17:45:29.548Z,13.18
2023-02-22T17:47:59.139Z,13.13
2023-02-22T17:50:27.232Z,14.65
2023-02-22T17:52:54.346Z,30.67
2023-02-22T17:55:22.482Z,15.48
2023-02-22T17:57:58.359Z,15.13
2023-02-22T18:00:33.210Z,15.27
2023-02-22T18:03:09.459Z,14.95
2023-02-22T18:05:41.837Z,16.33
2023-02-22T18:08:08.774Z,14.70
2023-02-22T18:10:35.977Z,23.63
2023-02-22T18:13:04.179Z,15.30
2023-02-22T18:15:35.670Z,13.68
2023-02-22T18:18:05.387Z,13.70
2023-02-22T18:20:38.433Z,12.88
2023-02-22T18:23:12.640Z,13.27
2023-02-22T18:25:40.514Z,13.13
2023-02-22T18:28:08.295Z,14.00
2023-02-22T18:30:38.247Z,13.10
2023-02-22T18:33:05.244Z,15.13
2023-02-22T18:35:32.151Z,14.25
2023-02-22T18:37:59.014Z,15.02
2023-02-22T18:40:26.069Z,15.75
2023-02-22T18:42:52.860Z,13.48
2023-02-22T18:45:21.167Z,13.90
2023-02-22T18:47:48.281Z,13.40
2023-02-22T18:50:18.554Z,15.35
2023-02-22T18:52:45.981Z,14.73
2023-02-22T18:55:17.780Z,13.70
2023-02-22T18:57:45.949Z,16.20
2023-02-22T19:00:16.667Z,14.93
2023-02-22T19:02:43.730Z,13.48
2023-02-22T19:05:12.271Z,15.63
2023-02-22T19:07:39.427Z,14.43
2023-02-22T19:10:07.210Z,13.25
2023-02-22T19:12:34.212Z,12.75
2023-02-22T19:15:01.787Z,12.05
2023-02-22T19:17:31.146Z,12.27
2023-02-22T19:19:58.348Z,13.45
2023-02-22T19:22:26.304Z,11.75
2023-02-22T19:24:54.341Z,13.15
2023-02-22T19:27:21.855Z,12.88
2023-02-22T19:29:49.489Z,13.77
2023-02-22T19:32:17.672Z,12.10
2023-02-22T19:34:44.854Z,11.95
2023-02-22T19:37:13.261Z,12.02
2023-02-22T19:39:42.507Z,11.85
2023-02-22T19:42:10.345Z,13.35
2023-02-22T19:44:37.581Z,14.18
2023-02-22T19:47:09.142Z,12.90
2023-02-22T19:49:37.716Z,12.20
2023-02-22T19:52:06.635Z,12.65
2023-02-22T19:54:34.065Z,11.70
2023-02-22T19:57:01.227Z,12.82
2023-02-22T19:59:28.610Z,12.98
2023-02-22T20:01:56.544Z,12.23
2023-02-22T20:04:24.476Z,11.68
2023-02-22T20:06:55.007Z,11.85
2023-02-22T20:09:36.385Z,11.63
2023-02-22T20:12:05.187Z,11.05
2023-02-22T20:14:32.175Z,12.38
2023-02-22T20:16:59.730Z,11.70
2023-02-22T20:19:27.474Z,11.40
2023-02-22T20:21:56.048Z,12.32
2023-02-22T20:24:24.166Z,11.38
2023-02-22T20:26:51.490Z,11.75
2023-02-22T20:29:19.865Z,10.52
2023-02-22T20:31:52.594Z,11.25
2023-02-22T20:34:19.607Z,9.98
2023-02-22T20:36:46.443Z,12.45
2023-02-22T20:39:14.420Z,11.98
2023-02-22T20:41:43.454Z,8.93
2023-02-22T20:44:13.664Z,11.82
2023-02-22T20:46:40.671Z,10.05
2023-02-22T20:49:09.055Z,10.05
2023-02-22T20:51:36.908Z,9.60
2023-02-22T20:54:04.036Z,9.63
2023-02-22T20:56:31.996Z,8.65
2023-02-22T20:59:01.087Z,9.88
2023-02-22T21:01:28.949Z,8.95
2023-02-22T21:04:00.925Z,8.90
2023-02-22T21:06:28.892Z,7.80
2023-02-22T21:08:58.153Z,8.52
2023-02-22T21:11:27.490Z,8.20
2023-02-22T21:13:54.731Z,8.18
2023-02-22T21:16:30.249Z,7.93
2023-02-22T21:18:59.763Z,8.82
2023-02-22T21:21:28.048Z,9.15
2023-02-22T21:23:57.210Z,8.48
2023-02-22T21:26:29.714Z,7.53
2023-02-22T21:29:05.515Z,7.75
2023-02-22T21:31:34.263Z,7.35
2023-02-22T21:34:02.137Z,7.72
2023-02-22T21:36:29.176Z,7.57
2023-02-22T21:38:58.661Z,8.18
2023-02-22T21:41:29.357Z,6.93
2023-02-22T21:43:58.260Z,7.47
2023-02-22T21:46:27.616Z,8.18
2023-02-22T21:48:54.612Z,7.78
2023-02-22T21:51:25.693Z,8.00
2023-02-22T21:53:54.652Z,7.18
2023-02-22T21:56:29.086Z,7.55
2023-02-22T22:01:35.040Z,7.65
2023-02-22T22:04:03.783Z,7.13
2023-02-22T22:06:32.488Z,8.20
2023-02-22T22:09:00.585Z,7.80
2023-02-22T22:11:27.587Z,7.38
2023-02-22T22:13:59.719Z,6.90
2023-02-22T22:16:29.795Z,6.63
2023-02-22T22:18:57.427Z,7.05
2023-02-22T22:21:25.257Z,6.57
2023-02-22T22:23:57.437Z,7.50
2023-02-22T22:26:25.861Z,6.88
2023-02-22T22:28:57.964Z,6.90
2023-02-22T22:31:28.911Z,6.97
2023-02-22T22:33:56.734Z,6.85
2023-02-22T22:36:26.546Z,7.45
2023-02-22T22:38:57.567Z,6.55
2023-02-22T22:41:28.120Z,7.40
2023-02-22T22:43:55.854Z,6.70
2023-02-22T22:46:23.664Z,6.45
2023-02-22T22:48:50.540Z,6.78
2023-02-22T22:51:22.183Z,6.22
2023-02-22T22:53:50.934Z,6.60
2023-02-22T22:56:21.052Z,6.40
2023-02-22T22:58:56.093Z,6.25
2023-02-22T23:01:32.585Z,6.45
2023-02-22T23:04:02.386Z,7.15
2023-02-22T23:06:33.129Z,6.65
2023-02-22T23:09:11.623Z,5.80
2023-02-22T23:11:44.956Z,5.45
2023-02-22T23:14:32.312Z,5.53
2023-02-22T23:17:03.702Z,6.13
2023-02-22T23:19:32.811Z,6.75
2023-02-22T23:21:59.827Z,5.45
2023-02-22T23:24:27.710Z,5.38
2023-02-22T23:27:00.216Z,6.45
2023-02-22T23:29:31.138Z,5.55
2023-02-22T23:31:58.869Z,6.03
2023-02-22T23:34:25.953Z,6.13
2023-02-22T23:36:55.644Z,5.35
2023-02-22T23:39:24.214Z,5.93
2023-02-22T23:41:56.450Z,6.63
2023-02-22T23:44:23.364Z,5.85
2023-02-22T23:46:55.530Z,5.43
2023-02-22T23:49:25.903Z,4.63
2023-02-22T23:51:53.153Z,6.10
2023-02-22T23:54:25.803Z,5.30
2023-02-22T23:57:02.464Z,5.32
2023-02-22T23:59:30.925Z,5.70
